Latest Weather Observations for Tuggeranong

IDN60801

Issued at 7:32 am EDT Sunday 7 February 2016 (issued every 30 minutes, with the page automatically refreshed every 10 minutes)

About weather observations | Map of weather stations | Latest weather observations for NSW | Other Formats
Station Details ID: 070339 Name: TUGGERANONG (ISABELLA PLAINS) AWS Lat: -35.42 Lon: 149.09 Height: 586.7 m
Data from the previous 72 hours. | See also: Recent months at Tuggeranong
Date/Time
EDT
Temp
°C
App
Temp
°C
Dew
Point
Rel
Hum
%
Delta-T
°C
Wind Press
QNH
hPa
Press
MSL
hPa
Rain
since 9 am
mm
Dir
 
Spd
km/h
Gust
km/h
Spd
kts
Gust
kts
07/07:30am 12.4 12.9 11.6 95 0.4 CALM 0 0 0 0 1020.3 1017.6 0.0
07/07:00am 10.5 10.6 10.3 99 0.1 CALM 0 0 0 0 1020.2 1017.5 0.0
07/06:30am 9.6 9.4 9.0 96 0.3 CALM 0 0 0 0 1020.0 1017.3 0.0
07/06:00am 10.3 10.4 10.0 98 0.2 CALM 0 0 0 0 1019.8 1017.0 0.0
07/05:30am 10.2 10.1 9.6 96 0.3 CALM 0 0 0 0 1019.7 1016.9 0.0
07/05:00am 10.6 10.7 10.0 96 0.3 CALM 0 0 0 0 1019.5 1016.7 0.0
07/04:30am 11.3 11.5 10.7 96 0.3 CALM 0 0 0 0 1019.5 1016.7 0.0
07/04:00am 11.3 11.4 10.2 93 0.6 CALM 0 0 0 0 1019.5 1016.7 0.0
07/03:30am 11.8 12.0 10.7 93 0.6 CALM 0 6 0 3 1019.5 1016.7 0.0
07/03:00am 12.0 12.3 10.9 93 0.6 CALM 0 6 0 3 1019.6 1016.8 0.0
07/02:30am 12.4 12.8 11.3 93 0.6 CALM 0 0 0 0 1019.7 1016.9 0.0
07/02:00am 12.6 12.9 11.0 90 0.9 CALM 0 0 0 0 1019.8 1017.0 0.0
07/01:30am 13.1 13.7 11.8 92 0.7 CALM 0 0 0 0 1020.0 1017.3 0.0
07/01:00am 13.1 13.5 11.3 89 1.0 CALM 0 0 0 0 1020.3 1017.6 0.0
07/12:30am 14.1 14.5 11.3 83 1.5 CALM 0 0 0 0 1020.5 1017.8 0.0
07/12:00am 15.3 15.8 11.7 79 2.0 CALM 0 6 0 3 1020.5 1017.8 0.0
 
Date/Time
EDT
Temp
°C
App
Temp
°C
Dew
Point
Rel
Hum
%
Delta-T
°C
Wind Press
QNH
hPa
Press
MSL
hPa
Rain
since 9 am
mm
Dir
 
Spd
km/h
Gust
km/h
Spd
kts
Gust
kts
06/11:30pm 16.0 15.3 12.0 77 2.2 ESE 7 9 4 5 1020.6 1017.9 0.0
06/11:00pm 16.6 15.3 12.4 76 2.4 ENE 11 19 6 10 1020.5 1017.8 0.0
06/10:30pm 17.0 15.6 12.1 73 2.8 ENE 11 19 6 10 1020.3 1017.6 0.0
06/10:00pm 17.5 16.5 12.4 72 2.9 ENE 9 17 5 9 1020.1 1017.4 0.0
06/09:30pm 18.1 16.8 12.5 70 3.2 E 11 17 6 9 1019.6 1016.8 0.0
06/09:00pm 18.9 17.8 11.9 64 4.0 E 9 17 5 9 1019.1 1016.4 0.0
06/08:30pm 19.8 18.3 11.8 60 4.6 ENE 11 19 6 10 1018.8 1016.1 0.0
06/08:00pm 21.1 18.6 11.2 53 5.6 E 15 22 8 12 1018.4 1015.6 0.0
06/07:30pm 22.1 20.0 11.2 50 6.2 ENE 13 24 7 13 1018.1 1015.3 0.0
06/07:00pm 22.8 20.3 10.9 47 6.8 ENE 15 20 8 11 1017.7 1014.9 0.0
06/06:30pm 23.3 21.3 11.4 47 6.8 ENE 13 22 7 12 1017.5 1014.7 0.0
06/06:00pm 23.4 21.2 10.8 45 7.2 ENE 13 22 7 12 1017.3 1014.6 0.0
06/05:30pm 23.6 21.1 11.0 45 7.2 ESE 15 22 8 12 1017.3 1014.6 0.0
06/05:00pm 23.9 21.8 11.3 45 7.3 E 13 20 7 11 1017.5 1014.7 0.0
06/04:30pm 24.1 22.1 11.4 45 7.3 ENE 13 22 7 12 1017.7 1014.9 0.0
06/04:00pm 24.3 21.6 11.6 45 7.4 NE 17 24 9 13 1017.9 1015.1 0.0
06/03:30pm 23.9 21.5 11.3 45 7.3 E 15 24 8 13 1018.1 1015.3 0.0
06/03:00pm 23.5 21.9 11.5 47 6.9 E 11 20 6 11 1018.4 1015.6 0.0
06/02:30pm 23.2 21.4 10.9 46 7.0 SE 11 20 6 11 1018.6 1015.9 0.0
06/02:00pm 23.3 21.7 11.4 47 6.8 ENE 11 17 6 9 1018.9 1016.2 0.0
06/01:30pm 22.6 20.4 10.7 47 6.7 E 13 19 7 10 1019.4 1016.6 0.0
06/01:00pm 22.4 20.1 11.8 51 6.1 E 15 24 8 13 1019.8 1017.0 0.0
06/12:30pm 21.5 19.2 10.3 49 6.3 E 13 22 7 12 1020.2 1017.5 0.0
06/12:00pm 21.3 18.9 10.2 49 6.2 E 13 20 7 11 1020.4 1017.7 0.0
06/11:30am 20.4 18.3 9.9 51 5.8 SSE 11 22 6 12 1020.6 1017.9 0.0
06/11:00am 20.1 16.8 9.7 51 5.7 ESE 17 30 9 16 1020.9 1018.2 0.0
06/10:30am 19.5 17.4 11.0 58 4.8 E 13 24 7 13 1021.3 1018.5 0.0
06/10:00am 18.5 16.6 10.6 60 4.4 ESE 11 17 6 9 1021.5 1018.8 0.0
06/09:30am 18.2 15.6 10.6 61 4.2 ESE 15 22 8 12 1021.5 1018.8 0.0
06/09:00am 17.7 15.9 10.8 64 3.8 ESE 11 19 6 10 1021.5 1018.8 0.0
06/08:30am 17.2 16.0 11.5 69 3.2 SE 9 13 5 7 1021.2 1018.4 0.0
06/08:00am 16.5 15.8 11.9 74 2.6 ESE 7 11 4 6 1020.8 1018.1 0.0
06/07:30am 16.2 15.4 11.6 74 2.6 S 7 11 4 6 1020.4 1017.7 0.0
06/07:00am 15.2 14.4 11.0 76 2.3 SE 6 9 3 5 1020.2 1017.5 0.0
06/06:30am 15.0 13.5 10.6 75 2.4 SE 9 15 5 8 1020.0 1017.3 0.0
06/06:00am 15.1 13.6 10.5 74 2.5 SE 9 11 5 6 1019.9 1017.1 0.0
06/05:30am 15.9 14.6 11.3 74 2.5 SE 9 17 5 9 1019.8 1017.0 0.0
06/05:00am 16.1 15.4 11.9 76 2.3 SE 7 9 4 5 1019.7 1016.9 0.0
06/04:30am 15.9 14.8 11.9 77 2.2 SSE 9 13 5 7 1019.7 1016.9 0.0
06/04:00am 15.8 14.7 11.8 77 2.2 SE 9 11 5 6 1019.8 1017.0 0.0
06/03:30am 15.8 13.5 11.6 76 2.3 SE 15 22 8 12 1020.0 1017.3 0.0
06/03:00am 15.8 14.7 12.0 78 2.1 SE 9 13 5 7 1020.2 1017.5 0.0
06/02:30am 15.6 16.4 12.7 83 1.6 CALM 0 2 0 1 1020.5 1017.8 0.0
06/02:00am 15.7 14.8 12.5 81 1.8 SSE 9 15 5 8 1020.6 1017.9 0.0
06/01:30am 16.3 14.0 11.9 75 2.5 SE 15 22 8 12 1020.8 1018.1 0.0
06/01:00am 16.7 14.3 11.4 71 2.9 SE 15 20 8 11 1020.8 1018.1 0.0
06/12:30am 16.4 15.0 12.2 76 2.4 ESE 11 19 6 10 1021.1 1018.3 0.0
06/12:00am 15.9 14.2 12.5 80 1.9 E 13 20 7 11 1021.3 1018.5 0.0
 
Date/Time
EDT
Temp
°C
App
Temp
°C
Dew
Point
Rel
Hum
%
Delta-T
°C
Wind Press
QNH
hPa
Press
MSL
hPa
Rain
since 9 am
mm
Dir
 
Spd
km/h
Gust
km/h
Spd
kts
Gust
kts
05/11:30pm 16.8 16.1 11.9 73 2.8 ESE 7 11 4 6 1021.4 1018.6 0.0
05/11:00pm 15.7 15.0 11.9 78 2.1 E 7 11 4 6 1021.6 1018.9 0.0
05/10:30pm 16.1 15.2 11.5 74 2.6 E 7 11 4 6 1021.5 1018.8 0.0
05/10:00pm 16.4 14.9 11.8 74 2.6 ESE 11 17 6 9 1021.5 1018.8 0.0
05/09:30pm 16.7 14.4 11.8 73 2.7 ESE 15 24 8 13 1021.3 1018.5 0.0
05/09:00pm 16.7 15.1 12.7 77 2.3 ESE 13 20 7 11 1021.2 1018.4 0.0
05/08:30pm 17.2 14.2 12.5 74 2.7 E 20 30 11 16 1020.7 1018.0 0.0
05/08:00pm 18.0 15.9 12.5 70 3.1 E 15 24 8 13 1020.3 1017.6 0.0
05/07:30pm 18.7 15.7 12.5 67 3.6 E 20 28 11 15 1020.0 1017.3 0.0
05/07:00pm 20.0 16.8 11.8 59 4.7 E 20 32 11 17 1019.7 1016.9 0.0
05/06:30pm 20.9 16.8 10.1 50 6.0 E 22 32 12 17 1019.3 1016.5 0.0
05/06:00pm 21.3 17.2 11.6 54 5.5 E 24 37 13 20 1019.1 1016.4 0.0
05/05:30pm 21.7 17.8 9.6 46 6.7 E 20 28 11 15 1019.3 1016.5 0.0
05/05:00pm 22.7 19.1 9.8 44 7.2 ESE 19 28 10 15 1019.1 1016.4 0.0
05/04:30pm 22.9 19.1 11.0 47 6.8 SE 22 32 12 17 1019.3 1016.5 0.0
05/04:00pm 22.3 18.8 10.1 46 6.8 SE 19 26 10 14 1019.5 1016.7 0.0
05/03:30pm 22.3 18.1 9.8 45 7.0 ESE 22 35 12 19 1019.7 1016.9 0.0
05/03:00pm 22.9 19.2 10.0 44 7.2 ESE 20 33 11 18 1019.7 1016.9 0.0
05/02:30pm 22.0 18.0 9.2 44 7.0 ESE 20 32 11 17 1020.1 1017.4 0.0
05/02:00pm 21.4 17.9 10.3 49 6.2 ESE 19 26 10 14 1020.2 1017.5 0.0
05/01:30pm 22.1 18.3 11.2 50 6.2 ESE 22 33 12 18 1020.4 1017.7 0.0
05/01:00pm 20.4 16.0 10.5 53 5.5 E 24 33 13 18 1020.6 1017.9 0.0
05/12:30pm 20.6 16.3 10.7 53 5.6 E 24 33 13 18 1020.8 1018.1 0.0
05/12:00pm 20.0 17.2 11.2 57 5.0 SE 17 28 9 15 1020.9 1018.2 0.0
05/11:30am 19.0 15.8 11.1 60 4.4 S 19 30 10 16 1020.9 1018.2 0.0
05/11:00am 17.9 14.4 11.0 64 3.8 S 20 30 11 16 1021.3 1018.5 0.0
05/10:30am 17.4 13.8 10.5 64 3.8 S 20 32 11 17 1021.3 1018.5 0.0
05/10:00am 16.3 12.5 9.7 65 3.5 S 20 35 11 19 1021.3 1018.5 0.0
05/09:30am 17.0 13.4 9.9 63 3.9 SSE 19 30 10 16 1021.3 1018.5 0.0
05/09:00am 15.9 12.2 9.6 66 3.4 S 19 28 10 15 1021.2 1018.4 0.0
05/08:30am 15.3 11.6 9.4 68 3.1 SSE 19 28 10 15 1021.1 1018.3 0.0
05/08:00am 14.4 10.3 8.8 69 2.9 SSE 20 35 11 19 1020.7 1018.0 0.0
05/07:30am 14.1 9.6 8.7 70 2.8 SSE 22 35 12 19 1020.1 1017.4 0.0
05/07:00am 13.6 9.5 8.7 72 2.5 SSE 20 35 11 19 1019.7 1016.9 0.0
05/06:30am 13.4 8.5 8.5 72 2.5 SSE 24 39 13 21 1019.5 1016.7 0.0
05/06:00am 13.4 8.5 8.5 72 2.5 SSE 24 37 13 20 1019.1 1016.4 0.0
05/05:30am 13.5 9.3 8.4 71 2.6 SSE 20 32 11 17 1018.8 1016.1 0.0
05/05:00am 13.6 9.3 8.0 69 2.9 S 20 35 11 19 1018.6 1015.9 0.0
05/04:30am 13.9 10.1 7.7 66 3.2 SSE 17 28 9 15 1018.6 1015.9 0.0
05/04:00am 14.4 10.0 7.5 63 3.5 SSE 20 33 11 18 1018.5 1015.8 0.0
05/03:30am 14.4 10.0 7.2 62 3.6 S 20 30 11 16 1018.6 1015.9 0.0
05/03:00am 14.4 10.0 7.2 62 3.6 S 20 33 11 18 1018.7 1016.0 0.0
05/02:30am 14.6 9.4 7.2 61 3.7 S 24 37 13 20 1018.7 1016.0 0.0
05/02:00am 14.6 9.3 6.9 60 3.9 S 24 44 13 24 1018.8 1016.1 0.0
05/01:30am 14.7 10.4 7.7 63 3.6 S 20 32 11 17 1019.3 1016.5 0.0
05/01:00am 15.0 10.5 7.1 59 4.0 SE 20 37 11 20 1019.7 1016.9 0.0
05/12:30am 15.2 11.4 7.7 61 3.9 ESE 17 26 9 14 1019.6 1016.8 0.0
05/12:00am 15.7 12.1 8.2 61 3.9 SE 17 24 9 13 1019.4 1016.6 0.0
 
Date/Time
EDT
Temp
°C
App
Temp
°C
Dew
Point
Rel
Hum
%
Delta-T
°C
Wind Press
QNH
hPa
Press
MSL
hPa
Rain
since 9 am
mm
Dir
 
Spd
km/h
Gust
km/h
Spd
kts
Gust
kts
04/11:30pm 15.9 13.1 8.4 61 3.9 SE 13 20 7 11 1019.3 1016.5 0.0
04/11:00pm 16.4 13.2 8.6 60 4.1 SE 15 24 8 13 1019.1 1016.4 0.0
04/10:30pm 16.9 13.5 9.1 60 4.2 SE 17 24 9 13 1019.0 1016.3 0.0
04/10:00pm 17.2 13.9 9.6 61 4.1 ESE 17 24 9 13 1018.7 1016.0 0.0
04/09:30pm 17.8 14.5 9.7 59 4.4 SE 17 28 9 15 1018.3 1015.5 0.0
04/09:00pm 18.4 14.8 9.7 57 4.7 ESE 19 28 10 15 1017.9 1015.1 0.0
04/08:30pm 18.3 15.8 12.3 68 3.4 E 17 24 9 13 1017.5 1014.7 0.0
04/08:00pm 20.3 16.5 9.8 51 5.8 ESE 20 30 11 16 1017.0 1014.3 0.0
04/07:30pm 21.2 17.5 10.1 49 6.2 ESE 20 35 11 19 1016.5 1013.7 0.0
04/07:00pm 22.2 18.6 10.4 47 6.6 ESE 20 28 11 15 1015.9 1013.1 0.0
04/06:30pm 23.3 20.0 9.7 42 7.6 SE 17 26 9 14 1015.3 1012.5 0.0
04/06:00pm 23.4 19.9 10.1 43 7.5 ESE 19 24 10 13 1015.1 1012.3 0.0
04/05:30pm 23.6 20.1 10.3 43 7.5 ESE 19 32 10 17 1015.0 1012.2 0.0
04/05:00pm 23.4 20.4 10.5 44 7.3 ESE 17 28 9 15 1015.2 1012.4 0.0
04/04:30pm 23.5 20.8 10.2 43 7.5 ESE 15 24 8 13 1014.9 1012.1 0.0
04/04:00pm 23.6 20.4 9.9 42 7.7 SE 17 24 9 13 1014.9 1012.1 0.0
04/03:30pm 24.4 20.5 10.7 42 7.8 S 22 33 12 18 1014.9 1012.1 0.0
04/03:00pm 23.3 19.6 10.0 43 7.5 S 20 33 11 18 1015.1 1012.3 0.0
04/02:30pm 23.0 18.8 11.1 47 6.8 S 24 37 13 20 1015.4 1012.7 0.0
04/02:00pm 22.2 17.7 10.0 46 6.8 S 24 35 13 19 1016.0 1013.2 0.0
04/01:30pm 22.4 18.2 11.2 49 6.4 S 24 37 13 20 1016.0 1013.2 0.0
04/01:00pm 21.9 17.7 11.0 50 6.2 S 24 37 13 20 1016.2 1013.4 0.0
04/12:30pm 21.2 17.9 11.5 54 5.5 S 20 33 11 18 1016.4 1013.6 0.0
04/12:00pm 20.3 17.0 11.5 57 5.0 S 20 32 11 17 1016.8 1014.0 0.0
04/11:30am 19.7 14.6 10.7 56 5.0 S 28 41 15 22 1017.0 1014.3 0.0
04/11:00am 18.7 14.6 11.5 63 4.1 S 24 43 13 23 1016.9 1014.2 0.0
04/10:30am 18.4 13.5 11.2 63 4.0 S 28 44 15 24 1016.7 1013.9 0.0
04/10:00am 17.4 13.2 11.0 66 3.5 S 24 39 13 21 1016.7 1013.9 0.0
04/09:30am 16.4 11.3 10.7 69 3.1 S 28 48 15 26 1016.7 1013.9 0.0
04/09:27am 16.3 10.9 10.8 70 3.0 S 30 48 16 26 1016.7 1013.9 0.0
04/09:00am 15.5 10.4 10.5 72 2.7 S 28 43 15 23 1016.4 1013.6 6.8
04/08:30am 15.0 9.8 10.2 73 2.6 S 28 46 15 25 1016.2 1013.4 6.6
04/08:11am 15.4 10.2 10.2 71 2.8 S 28 46 15 25 1016.0 1013.2 6.6
04/08:00am 15.2 10.3 10.0 71 2.8 S 26 48 14 26 1015.8 1013.0 6.4
04/07:47am 15.2 9.9 10.0 71 2.8 SSE 28 50 15 27 1015.5 1012.8 6.4

Other Formats:

Comma delimited format used in spreadsheet applications
http://www.bom.gov.au/fwo/IDN60801/IDN60801.94925.axf

JavaScript Object Notation format (JSON) in row-major order
http://www.bom.gov.au/fwo/IDN60801/IDN60801.94925.json